sensor_id;sensor_type;location;lat;lon;timestamp;pressure;altitude;pressure_sealevel;temperature;humidity
25156;BME280;21913;52.456;13.634;2022-10-31T00:04:06;100775.59;;;17.94;71.49
25156;BME280;21913;52.456;13.634;2022-10-31T00:09:09;100772.97;;;17.94;71.32
25156;BME280;21913;52.456;13.634;2022-10-31T00:14:11;100779.06;;;17.93;71.52
25156;BME280;21913;52.456;13.634;2022-10-31T00:19:13;100767.75;;;17.93;71.51
25156;BME280;21913;52.456;13.634;2022-10-31T00:24:14;100780.00;;;17.91;71.56
25156;BME280;21913;52.456;13.634;2022-10-31T00:29:16;100790.50;;;17.89;71.62
25156;BME280;21913;52.456;13.634;2022-10-31T00:34:17;100786.13;;;17.90;71.65
25156;BME280;21913;52.456;13.634;2022-10-31T00:39:19;100797.47;;;17.88;71.69
25156;BME280;21913;52.456;13.634;2022-10-31T00:44:21;100795.78;;;17.86;71.73
25156;BME280;21913;52.456;13.634;2022-10-31T00:49:22;100789.69;;;17.85;71.76
25156;BME280;21913;52.456;13.634;2022-10-31T00:54:24;100781.88;;;17.84;71.80
25156;BME280;21913;52.456;13.634;2022-10-31T00:59:25;100786.25;;;17.82;71.84
25156;BME280;21913;52.456;13.634;2022-10-31T01:04:27;100794.97;;;17.82;71.83
25156;BME280;21913;52.456;13.634;2022-10-31T01:09:31;100802.84;;;17.81;71.87
25156;BME280;21913;52.456;13.634;2022-10-31T01:14:33;100802.00;;;17.80;71.82
25156;BME280;21913;52.456;13.634;2022-10-31T01:19:34;100802.03;;;17.79;71.80
25156;BME280;21913;52.456;13.634;2022-10-31T01:24:36;100792.47;;;17.78;72.00
25156;BME280;21913;52.456;13.634;2022-10-31T01:29:38;100779.38;;;17.76;71.91
25156;BME280;21913;52.456;13.634;2022-10-31T01:34:41;100793.31;;;17.77;72.27
25156;BME280;21913;52.456;13.634;2022-10-31T01:39:42;100792.47;;;17.76;71.93
25156;BME280;21913;52.456;13.634;2022-10-31T01:44:51;100792.50;;;17.75;72.07
25156;BME280;21913;52.456;13.634;2022-10-31T01:49:54;100793.41;;;17.74;72.03
25156;BME280;21913;52.456;13.634;2022-10-31T02:00:02;100789.06;;;17.73;72.18
25156;BME280;21913;52.456;13.634;2022-10-31T02:05:17;100790.78;;;17.71;72.33
25156;BME280;21913;52.456;13.634;2022-10-31T02:10:21;100772.50;;;17.69;72.33
25156;BME280;21913;52.456;13.634;2022-10-31T02:15:23;100781.25;;;17.68;72.25
25156;BME280;21913;52.456;13.634;2022-10-31T02:20:32;100796.91;;;17.70;72.06
25156;BME280;21913;52.456;13.634;2022-10-31T02:41:34;100823.19;;;17.64;72.37
25156;BME280;21913;52.456;13.634;2022-10-31T02:47:10;100811.84;;;17.65;72.20
25156;BME280;21913;52.456;13.634;2022-10-31T02:52:17;100802.25;;;17.64;72.23
25156;BME280;21913;52.456;13.634;2022-10-31T02:57:30;100789.22;;;17.62;72.41
25156;BME280;21913;52.456;13.634;2022-10-31T03:18:17;100777.03;;;17.59;72.46
25156;BME280;21913;52.456;13.634;2022-10-31T03:23:24;100785.78;;;17.58;72.32
25156;BME280;21913;52.456;13.634;2022-10-31T03:28:30;100793.63;;;17.58;72.53
25156;BME280;21913;52.456;13.634;2022-10-31T03:33:37;100797.13;;;17.57;72.50
25156;BME280;21913;52.456;13.634;2022-10-31T03:38:42;100799.75;;;17.57;72.56
25156;BME280;21913;52.456;13.634;2022-10-31T03:43:59;100795.38;;;17.58;72.65
25156;BME280;21913;52.456;13.634;2022-10-31T03:49:03;100800.66;;;17.56;72.78
25156;BME280;21913;52.456;13.634;2022-10-31T03:54:15;100808.50;;;17.56;72.66
25156;BME280;21913;52.456;13.634;2022-10-31T03:59:42;100814.59;;;17.55;72.59
25156;BME280;21913;52.456;13.634;2022-10-31T04:04:46;100811.16;;;17.53;72.74
25156;BME280;21913;52.456;13.634;2022-10-31T04:09:50;100817.25;;;17.54;72.50
25156;BME280;21913;52.456;13.634;2022-10-31T04:14:55;100812.91;;;17.53;72.80
25156;BME280;21913;52.456;13.634;2022-10-31T04:20:01;100812.91;;;17.53;72.64
25156;BME280;21913;52.456;13.634;2022-10-31T04:25:03;100811.19;;;17.52;72.63
25156;BME280;21913;52.456;13.634;2022-10-31T04:30:05;100803.34;;;17.52;72.79
25156;BME280;21913;52.456;13.634;2022-10-31T04:35:10;100799.84;;;17.51;72.71
25156;BME280;21913;52.456;13.634;2022-10-31T04:40:11;100800.72;;;17.50;72.85
25156;BME280;21913;52.456;13.634;2022-10-31T04:45:51;100788.53;;;17.49;72.75
25156;BME280;21913;52.456;13.634;2022-10-31T04:50:57;100794.63;;;17.50;72.68
25156;BME280;21913;52.456;13.634;2022-10-31T04:55:59;100784.19;;;17.48;72.92
25156;BME280;21913;52.456;13.634;2022-10-31T05:01:09;100782.50;;;17.46;72.85
25156;BME280;21913;52.456;13.634;2022-10-31T05:06:11;100785.13;;;17.46;73.03
25156;BME280;21913;52.456;13.634;2022-10-31T05:11:15;100780.75;;;17.46;72.92
25156;BME280;21913;52.456;13.634;2022-10-31T05:16:18;100776.41;;;17.45;73.05
25156;BME280;21913;52.456;13.634;2022-10-31T05:21:54;100779.03;;;17.45;72.99
25156;BME280;21913;52.456;13.634;2022-10-31T05:26:57;100777.28;;;17.44;72.97
25156;BME280;21913;52.456;13.634;2022-10-31T05:31:59;100772.03;;;17.44;72.98
25156;BME280;21913;52.456;13.634;2022-10-31T05:37:19;100776.41;;;17.44;72.90
25156;BME280;21913;52.456;13.634;2022-10-31T05:42:21;100780.78;;;17.43;72.97
25156;BME280;21913;52.456;13.634;2022-10-31T05:47:23;100776.41;;;17.44;72.95
25156;BME280;21913;52.456;13.634;2022-10-31T05:52:45;100771.25;;;17.41;72.83
25156;BME280;21913;52.456;13.634;2022-10-31T05:57:59;100759.03;;;17.41;72.95
25156;BME280;21913;52.456;13.634;2022-10-31T06:03:03;100764.25;;;17.41;73.00
25156;BME280;21913;52.456;13.634;2022-10-31T06:08:31;100767.78;;;17.40;72.96
25156;BME280;21913;52.456;13.634;2022-10-31T06:13:38;100773.00;;;17.40;72.98
25156;BME280;21913;52.456;13.634;2022-10-31T06:18:49;100765.16;;;17.39;73.15
25156;BME280;21913;52.456;13.634;2022-10-31T06:23:52;100773.00;;;17.39;73.06
25156;BME280;21913;52.456;13.634;2022-10-31T06:29:19;100772.16;;;17.38;73.09
25156;BME280;21913;52.456;13.634;2022-10-31T06:34:50;100785.22;;;17.38;73.07
25156;BME280;21913;52.456;13.634;2022-10-31T06:39:51;100780.00;;;17.38;72.99
25156;BME280;21913;52.456;13.634;2022-10-31T06:44:53;100780.03;;;17.37;73.07
25156;BME280;21913;52.456;13.634;2022-10-31T06:50:13;100787.88;;;17.37;73.17
25156;BME280;21913;52.456;13.634;2022-10-31T06:55:15;100777.41;;;17.37;73.00
25156;BME280;21913;52.456;13.634;2022-10-31T07:00:16;100784.41;;;17.36;73.04
25156;BME280;21913;52.456;13.634;2022-10-31T07:05:22;100780.06;;;17.35;72.98
25156;BME280;21913;52.456;13.634;2022-10-31T07:10:26;100781.81;;;17.34;73.03
25156;BME280;21913;52.456;13.634;2022-10-31T07:15:36;100779.19;;;17.34;73.03
25156;BME280;21913;52.456;13.634;2022-10-31T07:20:38;100780.94;;;17.34;73.19
25156;BME280;21913;52.456;13.634;2022-10-31T07:25:39;100780.97;;;17.32;72.93
25156;BME280;21913;52.456;13.634;2022-10-31T07:30:55;100788.81;;;17.32;73.04
25156;BME280;21913;52.456;13.634;2022-10-31T07:35:57;100788.91;;;17.26;72.33
25156;BME280;21913;52.456;13.634;2022-10-31T07:41:03;100787.22;;;17.24;71.03
25156;BME280;21913;52.456;13.634;2022-10-31T07:46:11;100784.59;;;17.24;70.71
25156;BME280;21913;52.456;13.634;2022-10-31T07:51:31;100800.25;;;17.25;71.07
25156;BME280;21913;52.456;13.634;2022-10-31T07:56:51;100791.53;;;17.26;71.29
25156;BME280;21913;52.456;13.634;2022-10-31T08:01:53;100791.50;;;17.28;71.43
25156;BME280;21913;52.456;13.634;2022-10-31T08:07:13;100789.78;;;17.25;71.35
25156;BME280;21913;52.456;13.634;2022-10-31T08:12:19;100784.53;;;17.27;71.51
25156;BME280;21913;52.456;13.634;2022-10-31T08:17:21;100785.41;;;17.27;71.75
25156;BME280;21913;52.456;13.634;2022-10-31T08:22:31;100785.41;;;17.27;71.88
25156;BME280;21913;52.456;13.634;2022-10-31T08:27:34;100782.78;;;17.27;72.02
25156;BME280;21913;52.456;13.634;2022-10-31T08:32:36;100772.31;;;17.27;71.99
25156;BME280;21913;52.456;13.634;2022-10-31T08:37:57;100772.31;;;17.27;72.10
25156;BME280;21913;52.456;13.634;2022-10-31T08:43:12;100767.94;;;17.28;72.17
25156;BME280;21913;52.456;13.634;2022-10-31T08:48:16;100763.63;;;17.27;72.15
25156;BME280;21913;52.456;13.634;2022-10-31T08:53:18;100758.38;;;17.27;72.22
25156;BME280;21913;52.456;13.634;2022-10-31T08:58:28;100754.09;;;17.24;72.20
25156;BME280;21913;52.456;13.634;2022-10-31T09:03:34;100748.84;;;17.24;72.24
25156;BME280;21913;52.456;13.634;2022-10-31T09:08:36;100758.41;;;17.25;72.43
25156;BME280;21913;52.456;13.634;2022-10-31T09:13:38;100761.03;;;17.25;72.49
25156;BME280;21913;52.456;13.634;2022-10-31T09:19:01;100763.66;;;17.25;72.54
25156;BME280;21913;52.456;13.634;2022-10-31T09:24:05;100761.88;;;17.26;72.48
25156;BME280;21913;52.456;13.634;2022-10-31T09:29:08;100758.41;;;17.25;72.49
25156;BME280;21913;52.456;13.634;2022-10-31T09:34:11;100753.19;;;17.25;72.52
25156;BME280;21913;52.456;13.634;2022-10-31T09:39:22;100754.94;;;17.25;72.52
25156;BME280;21913;52.456;13.634;2022-10-31T09:45:06;100752.28;;;17.26;72.67
25156;BME280;21913;52.456;13.634;2022-10-31T09:55:27;100753.19;;;17.25;72.51
25156;BME280;21913;52.456;13.634;2022-10-31T10:00:34;100743.63;;;17.24;72.44
25156;BME280;21913;52.456;13.634;2022-10-31T10:05:56;100740.09;;;17.25;72.51
25156;BME280;21913;52.456;13.634;2022-10-31T10:32:55;100700.06;;;17.22;72.73
25156;BME280;21913;52.456;13.634;2022-10-31T10:43:33;100695.69;;;17.24;72.60
25156;BME280;21913;52.456;13.634;2022-10-31T10:48:44;100685.22;;;17.24;72.91
25156;BME280;21913;52.456;13.634;2022-10-31T10:54:13;100684.34;;;17.23;72.71
25156;BME280;21913;52.456;13.634;2022-10-31T10:59:19;100677.38;;;17.22;72.86
25156;BME280;21913;52.456;13.634;2022-10-31T11:04:33;100671.28;;;17.22;72.74
25156;BME280;21913;52.456;13.634;2022-10-31T11:09:35;100666.97;;;17.21;72.85
25156;BME280;21913;52.456;13.634;2022-10-31T11:14:53;100661.69;;;17.22;72.86
25156;BME280;21913;52.456;13.634;2022-10-31T11:30:20;100646.94;;;17.20;72.89
25156;BME280;21913;52.456;13.634;2022-10-31T11:35:24;100637.34;;;17.20;72.83
25156;BME280;21913;52.456;13.634;2022-10-31T11:40:26;100627.75;;;17.21;73.02
25156;BME280;21913;52.456;13.634;2022-10-31T11:45:32;100618.19;;;17.20;72.95
25156;BME280;21913;52.456;13.634;2022-10-31T11:50:38;100612.03;;;17.21;72.91
25156;BME280;21913;52.456;13.634;2022-10-31T11:55:40;100607.72;;;17.20;73.15
25156;BME280;21913;52.456;13.634;2022-10-31T12:00:49;100590.28;;;17.20;72.95
25156;BME280;21913;52.456;13.634;2022-10-31T12:06:07;100588.56;;;17.19;73.01
25156;BME280;21913;52.456;13.634;2022-10-31T12:21:56;100545.97;;;17.13;73.02
25156;BME280;21913;52.456;13.634;2022-10-31T12:27:14;100538.13;;;17.11;73.26
25156;BME280;21913;52.456;13.634;2022-10-31T12:38:17;100528.03;;;17.38;73.17
25156;BME280;21913;52.456;13.634;2022-10-31T12:49:05;100509.91;;;17.70;72.82
25156;BME280;21913;52.456;13.634;2022-10-31T12:54:16;100497.53;;;17.80;72.27
25156;BME280;21913;52.456;13.634;2022-10-31T12:59:42;100492.09;;;17.89;71.93
25156;BME280;21913;52.456;13.634;2022-10-31T13:04:49;100491.16;;;17.92;71.93
25156;BME280;21913;52.456;13.634;2022-10-31T13:10:01;100484.09;;;17.94;71.65
25156;BME280;21913;52.456;13.634;2022-10-31T13:15:33;100471.88;;;17.96;71.61
25156;BME280;21913;52.456;13.634;2022-10-31T13:20:42;100466.63;;;17.96;71.57
25156;BME280;21913;52.456;13.634;2022-10-31T13:25:49;100446.53;;;17.96;71.65
25156;BME280;21913;52.456;13.634;2022-10-31T13:30:52;100438.69;;;17.96;71.63
25156;BME280;21913;52.456;13.634;2022-10-31T13:41:34;100417.78;;;17.95;71.60
25156;BME280;21913;52.456;13.634;2022-10-31T13:51:35;100411.69;;;17.94;71.57
25156;BME280;21913;52.456;13.634;2022-10-31T13:56:36;100406.47;;;17.94;71.55
25156;BME280;21913;52.456;13.634;2022-10-31T14:01:46;100382.91;;;17.93;71.47
25156;BME280;21913;52.456;13.634;2022-10-31T14:06:58;100391.69;;;17.92;71.73
25156;BME280;21913;52.456;13.634;2022-10-31T14:12:22;100376.94;;;17.87;71.69
25156;BME280;21913;52.456;13.634;2022-10-31T14:17:28;100382.22;;;17.86;71.87
25156;BME280;21913;52.456;13.634;2022-10-31T14:22:32;100381.41;;;17.82;72.09
25156;BME280;21913;52.456;13.634;2022-10-31T14:27:45;100371.91;;;17.80;72.14
25156;BME280;21913;52.456;13.634;2022-10-31T14:32:51;100357.13;;;17.77;72.19
25156;BME280;21913;52.456;13.634;2022-10-31T14:38:11;100339.69;;;17.78;72.14
25156;BME280;21913;52.456;13.634;2022-10-31T14:43:35;100328.25;;;17.80;72.21
25156;BME280;21913;52.456;13.634;2022-10-31T14:54:02;100302.94;;;17.81;72.24
25156;BME280;21913;52.456;13.634;2022-10-31T14:59:12;100297.75;;;17.79;72.21
25156;BME280;21913;52.456;13.634;2022-10-31T15:04:22;100287.28;;;17.79;72.17
25156;BME280;21913;52.456;13.634;2022-10-31T15:09:28;100285.59;;;17.78;72.27
25156;BME280;21913;52.456;13.634;2022-10-31T15:14:30;100288.19;;;17.78;72.27
25156;BME280;21913;52.456;13.634;2022-10-31T15:19:34;100291.75;;;17.76;72.25
25156;BME280;21913;52.456;13.634;2022-10-31T15:24:37;100282.13;;;17.76;72.23
25156;BME280;21913;52.456;13.634;2022-10-31T15:29:54;100287.34;;;17.76;72.39
25156;BME280;21913;52.456;13.634;2022-10-31T15:34:56;100268.28;;;17.73;72.33
25156;BME280;21913;52.456;13.634;2022-10-31T15:40:06;100256.94;;;17.72;72.43
25156;BME280;21913;52.456;13.634;2022-10-31T15:50:45;100247.38;;;17.70;72.36
25156;BME280;21913;52.456;13.634;2022-10-31T15:55:50;100264.84;;;17.69;72.36
25156;BME280;21913;52.456;13.634;2022-10-31T16:01:04;100271.88;;;17.67;72.58
25156;BME280;21913;52.456;13.634;2022-10-31T16:06:06;100264.91;;;17.66;72.58
25156;BME280;21913;52.456;13.634;2022-10-31T16:16:16;100246.59;;;17.66;72.55
25156;BME280;21913;52.456;13.634;2022-10-31T16:21:38;100234.47;;;17.64;72.47
25156;BME280;21913;52.456;13.634;2022-10-31T16:26:40;100238.84;;;17.63;72.69
25156;BME280;21913;52.456;13.634;2022-10-31T16:31:42;100242.34;;;17.62;72.55
25156;BME280;21913;52.456;13.634;2022-10-31T16:36:44;100238.00;;;17.61;72.55
25156;BME280;21913;52.456;13.634;2022-10-31T16:41:50;100230.16;;;17.61;72.56
25156;BME280;21913;52.456;13.634;2022-10-31T16:47:15;100233.66;;;17.60;72.48
25156;BME280;21913;52.456;13.634;2022-10-31T16:52:17;100222.41;;;17.58;72.53
25156;BME280;21913;52.456;13.634;2022-10-31T16:57:25;100216.25;;;17.59;72.48
25156;BME280;21913;52.456;13.634;2022-10-31T17:02:28;100212.84;;;17.57;72.52
25156;BME280;21913;52.456;13.634;2022-10-31T17:07:30;100205.84;;;17.56;72.45
25156;BME280;21913;52.456;13.634;2022-10-31T17:12:32;100207.63;;;17.55;72.76
25156;BME280;21913;52.456;13.634;2022-10-31T17:17:33;100199.81;;;17.54;72.58
25156;BME280;21913;52.456;13.634;2022-10-31T17:22:35;100195.44;;;17.54;72.73
25156;BME280;21913;52.456;13.634;2022-10-31T17:27:36;100188.50;;;17.53;72.61
25156;BME280;21913;52.456;13.634;2022-10-31T17:32:39;100187.66;;;17.53;72.61
25156;BME280;21913;52.456;13.634;2022-10-31T17:37:42;100176.38;;;17.51;72.40
25156;BME280;21913;52.456;13.634;2022-10-31T17:42:55;100174.63;;;17.51;72.38
25156;BME280;21913;52.456;13.634;2022-10-31T17:47:56;100165.03;;;17.50;72.53
25156;BME280;21913;52.456;13.634;2022-10-31T17:52:58;100165.94;;;17.49;72.37
25156;BME280;21913;52.456;13.634;2022-10-31T17:58:00;100162.50;;;17.47;72.31
25156;BME280;21913;52.456;13.634;2022-10-31T18:03:03;100150.28;;;17.48;72.40
25156;BME280;21913;52.456;13.634;2022-10-31T18:08:05;100132.88;;;17.47;72.33
25156;BME280;21913;52.456;13.634;2022-10-31T18:13:06;100132.88;;;17.47;72.23
25156;BME280;21913;52.456;13.634;2022-10-31T18:18:08;100125.09;;;17.45;72.36
25156;BME280;21913;52.456;13.634;2022-10-31T18:23:10;100118.09;;;17.44;72.10
25156;BME280;21913;52.456;13.634;2022-10-31T18:28:11;100122.47;;;17.44;72.07
25156;BME280;21913;52.456;13.634;2022-10-31T18:33:13;100129.44;;;17.45;72.26
25156;BME280;21913;52.456;13.634;2022-10-31T18:38:14;100119.88;;;17.44;71.99
25156;BME280;21913;52.456;13.634;2022-10-31T18:43:16;100099.84;;;17.43;72.11
25156;BME280;21913;52.456;13.634;2022-10-31T18:48:18;100093.75;;;17.42;71.96
25156;BME280;21913;52.456;13.634;2022-10-31T18:53:19;100090.28;;;17.42;72.08
25156;BME280;21913;52.456;13.634;2022-10-31T18:58:21;100085.97;;;17.41;71.90
25156;BME280;21913;52.456;13.634;2022-10-31T19:03:22;100080.75;;;17.41;71.84
25156;BME280;21913;52.456;13.634;2022-10-31T19:08:26;100095.56;;;17.40;71.94
25156;BME280;21913;52.456;13.634;2022-10-31T19:13:37;100081.63;;;17.40;71.84
25156;BME280;21913;52.456;13.634;2022-10-31T19:18:40;100074.66;;;17.39;71.85
25156;BME280;21913;52.456;13.634;2022-10-31T19:23:43;100057.28;;;17.38;71.71
25156;BME280;21913;52.456;13.634;2022-10-31T19:28:45;100059.84;;;17.39;71.54
25156;BME280;21913;52.456;13.634;2022-10-31T19:33:46;100065.97;;;17.38;71.64
25156;BME280;21913;52.456;13.634;2022-10-31T19:38:49;100069.53;;;17.35;71.31
25156;BME280;21913;52.456;13.634;2022-10-31T19:43:52;100060.00;;;17.34;70.67
25156;BME280;21913;52.456;13.634;2022-10-31T19:48:54;100060.78;;;17.37;70.66
25156;BME280;21913;52.456;13.634;2022-10-31T19:53:55;100073.81;;;17.38;70.78
25156;BME280;21913;52.456;13.634;2022-10-31T19:58:57;100076.38;;;17.40;71.06
25156;BME280;21913;52.456;13.634;2022-10-31T20:03:59;100062.44;;;17.39;71.02
25156;BME280;21913;52.456;13.634;2022-10-31T20:09:02;100047.63;;;17.40;71.22
25156;BME280;21913;52.456;13.634;2022-10-31T20:14:05;100050.22;;;17.40;71.26
25156;BME280;21913;52.456;13.634;2022-10-31T20:19:07;100058.97;;;17.40;71.33
25156;BME280;21913;52.456;13.634;2022-10-31T20:24:09;100064.19;;;17.40;71.35
25156;BME280;21913;52.456;13.634;2022-10-31T20:29:12;100064.19;;;17.40;71.41
25156;BME280;21913;52.456;13.634;2022-10-31T20:34:14;100051.97;;;17.41;71.61
25156;BME280;21913;52.456;13.634;2022-10-31T20:39:16;100055.47;;;17.40;71.75
25156;BME280;21913;52.456;13.634;2022-10-31T20:44:17;100061.56;;;17.40;71.64
25156;BME280;21913;52.456;13.634;2022-10-31T20:49:19;100059.84;;;17.39;71.81
25156;BME280;21913;52.456;13.634;2022-10-31T20:54:21;100053.75;;;17.39;71.87
25156;BME280;21913;52.456;13.634;2022-10-31T20:59:22;100052.03;;;17.38;71.89
25156;BME280;21913;52.456;13.634;2022-10-31T21:04:24;100042.44;;;17.38;71.83
25156;BME280;21913;52.456;13.634;2022-10-31T21:09:25;100031.97;;;17.38;72.01
25156;BME280;21913;52.456;13.634;2022-10-31T21:14:27;100041.59;;;17.38;71.96
25156;BME280;21913;52.456;13.634;2022-10-31T21:19:28;100032.03;;;17.37;71.99
25156;BME280;21913;52.456;13.634;2022-10-31T21:24:30;100027.66;;;17.37;71.96
25156;BME280;21913;52.456;13.634;2022-10-31T21:29:32;100016.34;;;17.37;72.08
25156;BME280;21913;52.456;13.634;2022-10-31T21:34:33;100021.56;;;17.37;72.08
25156;BME280;21913;52.456;13.634;2022-10-31T21:39:35;100006.72;;;17.37;71.97
25156;BME280;21913;52.456;13.634;2022-10-31T21:44:36;100000.66;;;17.37;72.07
25156;BME280;21913;52.456;13.634;2022-10-31T21:49:38;100004.16;;;17.35;72.04
25156;BME280;21913;52.456;13.634;2022-10-31T21:54:39;100009.41;;;17.35;72.09
25156;BME280;21913;52.456;13.634;2022-10-31T21:59:41;100006.78;;;17.35;72.31
25156;BME280;21913;52.456;13.634;2022-10-31T22:04:42;99984.16;;;17.34;72.37
25156;BME280;21913;52.456;13.634;2022-10-31T22:09:44;99976.31;;;17.34;72.24
25156;BME280;21913;52.456;13.634;2022-10-31T22:14:46;99961.47;;;17.35;72.22
25156;BME280;21913;52.456;13.634;2022-10-31T22:19:47;99950.16;;;17.34;72.30
25156;BME280;21913;52.456;13.634;2022-10-31T22:24:49;99948.47;;;17.32;72.31
25156;BME280;21913;52.456;13.634;2022-10-31T22:29:50;99944.94;;;17.34;72.30
25156;BME280;21913;52.456;13.634;2022-10-31T22:34:54;99943.19;;;17.33;72.46
25156;BME280;21913;52.456;13.634;2022-10-31T22:39:56;99913.63;;;17.31;72.32
25156;BME280;21913;52.456;13.634;2022-10-31T22:44:57;99930.13;;;17.33;72.38
25156;BME280;21913;52.456;13.634;2022-10-31T22:49:59;99926.66;;;17.33;72.15
25156;BME280;21913;52.456;13.634;2022-10-31T22:55:00;99918.84;;;17.31;72.36
25156;BME280;21913;52.456;13.634;2022-10-31T23:00:04;99918.84;;;17.31;72.40
25156;BME280;21913;52.456;13.634;2022-10-31T23:05:06;99922.31;;;17.32;72.32
25156;BME280;21913;52.456;13.634;2022-10-31T23:10:07;99908.41;;;17.31;72.54
25156;BME280;21913;52.456;13.634;2022-10-31T23:15:09;99906.69;;;17.30;72.46
25156;BME280;21913;52.456;13.634;2022-10-31T23:20:11;99902.31;;;17.31;72.47
25156;BME280;21913;52.456;13.634;2022-10-31T23:25:12;99893.63;;;17.30;72.45
25156;BME280;21913;52.456;13.634;2022-10-31T23:30:14;99891.00;;;17.30;72.58
25156;BME280;21913;52.456;13.634;2022-10-31T23:35:15;99888.38;;;17.30;72.48
25156;BME280;21913;52.456;13.634;2022-10-31T23:40:17;99888.38;;;17.30;72.42
25156;BME280;21913;52.456;13.634;2022-10-31T23:45:19;99889.28;;;17.29;72.35
25156;BME280;21913;52.456;13.634;2022-10-31T23:50:20;99891.06;;;17.29;72.63
25156;BME280;21913;52.456;13.634;2022-10-31T23:55:22;99884.06;;;17.29;72.50
